sensor_id;sensor_type;location;lat;lon;timestamp;P1;durP1;ratioP1;P2;durP2;ratioP2
21539;SDS011;10931;52.164;5.518;2022-08-03T00:08:20;1.35;;;0.52;;
21539;SDS011;10931;52.164;5.518;2022-08-03T00:11:06;0.85;;;0.40;;
21539;SDS011;10931;52.164;5.518;2022-08-03T00:14:07;1.10;;;0.40;;
21539;SDS011;10931;52.164;5.518;2022-08-03T00:19:52;0.90;;;0.50;;
21539;SDS011;10931;52.164;5.518;2022-08-03T00:22:20;2.20;;;0.70;;
21539;SDS011;10931;52.164;5.518;2022-08-03T00:24:55;0.82;;;0.32;;
21539;SDS011;10931;52.164;5.518;2022-08-03T00:32:56;1.05;;;0.40;;
21539;SDS011;10931;52.164;5.518;2022-08-03T00:35:24;1.75;;;0.50;;
21539;SDS011;10931;52.164;5.518;2022-08-03T00:41:01;1.15;;;0.50;;
21539;SDS011;10931;52.164;5.518;2022-08-03T00:43:49;2.53;;;0.50;;
21539;SDS011;10931;52.164;5.518;2022-08-03T00:46:17;1.10;;;0.60;;
21539;SDS011;10931;52.164;5.518;2022-08-03T00:48:46;0.68;;;0.40;;
21539;SDS011;10931;52.164;5.518;2022-08-03T00:51:22;1.17;;;0.45;;
21539;SDS011;10931;52.164;5.518;2022-08-03T00:53:49;0.75;;;0.30;;
21539;SDS011;10931;52.164;5.518;2022-08-03T00:56:20;0.70;;;0.40;;
21539;SDS011;10931;52.164;5.518;2022-08-03T00:58:47;1.08;;;0.40;;
21539;SDS011;10931;52.164;5.518;2022-08-03T01:04:10;0.82;;;0.45;;
21539;SDS011;10931;52.164;5.518;2022-08-03T01:43:31;1.02;;;0.60;;
21539;SDS011;10931;52.164;5.518;2022-08-03T01:46:20;0.73;;;0.40;;
21539;SDS011;10931;52.164;5.518;2022-08-03T01:54:26;0.68;;;0.30;;
21539;SDS011;10931;52.164;5.518;2022-08-03T01:56:53;0.40;;;0.30;;
21539;SDS011;10931;52.164;5.518;2022-08-03T01:59:26;0.77;;;0.40;;
21539;SDS011;10931;52.164;5.518;2022-08-03T02:02:03;0.70;;;0.40;;
21539;SDS011;10931;52.164;5.518;2022-08-03T02:04:34;0.50;;;0.30;;
21539;SDS011;10931;52.164;5.518;2022-08-03T02:50:57;1.58;;;0.47;;
21539;SDS011;10931;52.164;5.518;2022-08-03T02:53:35;0.85;;;0.30;;
21539;SDS011;10931;52.164;5.518;2022-08-03T02:56:07;0.73;;;0.30;;
21539;SDS011;10931;52.164;5.518;2022-08-03T02:58:38;1.77;;;0.40;;
21539;SDS011;10931;52.164;5.518;2022-08-03T03:01:23;1.05;;;0.30;;
21539;SDS011;10931;52.164;5.518;2022-08-03T03:03:54;0.60;;;0.38;;
21539;SDS011;10931;52.164;5.518;2022-08-03T03:06:21;0.65;;;0.50;;
21539;SDS011;10931;52.164;5.518;2022-08-03T03:08:51;0.90;;;0.40;;
21539;SDS011;10931;52.164;5.518;2022-08-03T03:11:21;1.05;;;0.52;;
21539;SDS011;10931;52.164;5.518;2022-08-03T03:13:56;0.63;;;0.50;;
21539;SDS011;10931;52.164;5.518;2022-08-03T03:16:27;1.63;;;0.60;;
21539;SDS011;10931;52.164;5.518;2022-08-03T03:18:55;1.73;;;0.43;;
21539;SDS011;10931;52.164;5.518;2022-08-03T03:21:29;1.25;;;0.43;;
21539;SDS011;10931;52.164;5.518;2022-08-03T03:24:48;0.93;;;0.50;;
21539;SDS011;10931;52.164;5.518;2022-08-03T03:27:21;0.98;;;0.50;;
21539;SDS011;10931;52.164;5.518;2022-08-03T03:29:47;0.95;;;0.40;;
21539;SDS011;10931;52.164;5.518;2022-08-03T03:35:00;1.15;;;0.40;;
21539;SDS011;10931;52.164;5.518;2022-08-03T03:37:30;1.27;;;0.38;;
21539;SDS011;10931;52.164;5.518;2022-08-03T03:40:14;0.80;;;0.50;;
21539;SDS011;10931;52.164;5.518;2022-08-03T03:42:52;1.75;;;0.88;;
21539;SDS011;10931;52.164;5.518;2022-08-03T03:45:34;0.85;;;0.40;;
21539;SDS011;10931;52.164;5.518;2022-08-03T03:48:27;1.50;;;0.50;;
21539;SDS011;10931;52.164;5.518;2022-08-03T03:51:10;0.68;;;0.50;;
21539;SDS011;10931;52.164;5.518;2022-08-03T03:53:37;1.33;;;0.50;;
21539;SDS011;10931;52.164;5.518;2022-08-03T03:56:25;1.45;;;0.47;;
21539;SDS011;10931;52.164;5.518;2022-08-03T03:58:52;0.73;;;0.40;;
21539;SDS011;10931;52.164;5.518;2022-08-03T04:08:05;1.27;;;0.63;;
21539;SDS011;10931;52.164;5.518;2022-08-03T04:11:19;2.15;;;0.55;;
21539;SDS011;10931;52.164;5.518;2022-08-03T04:14:04;0.85;;;0.50;;
21539;SDS011;10931;52.164;5.518;2022-08-03T04:16:34;2.05;;;0.50;;
21539;SDS011;10931;52.164;5.518;2022-08-03T04:22:12;1.95;;;0.63;;
21539;SDS011;10931;52.164;5.518;2022-08-03T04:24:44;0.50;;;0.50;;
21539;SDS011;10931;52.164;5.518;2022-08-03T04:27:15;1.05;;;0.50;;
21539;SDS011;10931;52.164;5.518;2022-08-03T04:29:51;0.98;;;0.40;;
21539;SDS011;10931;52.164;5.518;2022-08-03T04:34:55;1.55;;;0.68;;
21539;SDS011;10931;52.164;5.518;2022-08-03T04:37:43;1.08;;;0.50;;
21539;SDS011;10931;52.164;5.518;2022-08-03T04:40:25;1.10;;;0.52;;
21539;SDS011;10931;52.164;5.518;2022-08-03T04:43:10;1.08;;;0.68;;
21539;SDS011;10931;52.164;5.518;2022-08-03T04:45:47;0.77;;;0.40;;
21539;SDS011;10931;52.164;5.518;2022-08-03T04:48:42;1.42;;;0.57;;
21539;SDS011;10931;52.164;5.518;2022-08-03T04:51:20;1.13;;;0.50;;
21539;SDS011;10931;52.164;5.518;2022-08-03T04:53:50;1.60;;;0.60;;
21539;SDS011;10931;52.164;5.518;2022-08-03T04:56:18;1.02;;;0.47;;
21539;SDS011;10931;52.164;5.518;2022-08-03T04:58:47;1.20;;;0.60;;
21539;SDS011;10931;52.164;5.518;2022-08-03T05:01:14;2.15;;;0.43;;
21539;SDS011;10931;52.164;5.518;2022-08-03T05:03:50;2.42;;;0.57;;
21539;SDS011;10931;52.164;5.518;2022-08-03T05:12:15;1.15;;;0.50;;
21539;SDS011;10931;52.164;5.518;2022-08-03T05:14:53;0.80;;;0.77;;
21539;SDS011;10931;52.164;5.518;2022-08-03T05:20:31;1.15;;;0.50;;
21539;SDS011;10931;52.164;5.518;2022-08-03T05:28:34;1.33;;;0.60;;
21539;SDS011;10931;52.164;5.518;2022-08-03T05:31:09;1.05;;;0.50;;
21539;SDS011;10931;52.164;5.518;2022-08-03T05:33:53;1.15;;;0.70;;
21539;SDS011;10931;52.164;5.518;2022-08-03T05:36:31;1.02;;;0.60;;
21539;SDS011;10931;52.164;5.518;2022-08-03T05:39:00;1.98;;;0.50;;
21539;SDS011;10931;52.164;5.518;2022-08-03T05:49:23;1.20;;;0.63;;
21539;SDS011;10931;52.164;5.518;2022-08-03T05:52:02;2.20;;;0.80;;
21539;SDS011;10931;52.164;5.518;2022-08-03T05:54:41;0.65;;;0.40;;
21539;SDS011;10931;52.164;5.518;2022-08-03T05:57:12;1.13;;;0.50;;
21539;SDS011;10931;52.164;5.518;2022-08-03T05:59:51;3.13;;;0.85;;
21539;SDS011;10931;52.164;5.518;2022-08-03T06:02:28;1.75;;;0.73;;
21539;SDS011;10931;52.164;5.518;2022-08-03T06:05:12;0.90;;;0.73;;
21539;SDS011;10931;52.164;5.518;2022-08-03T06:07:38;1.10;;;0.50;;
21539;SDS011;10931;52.164;5.518;2022-08-03T06:12:39;1.67;;;0.50;;
21539;SDS011;10931;52.164;5.518;2022-08-03T06:17:49;0.82;;;0.57;;
21539;SDS011;10931;52.164;5.518;2022-08-03T06:20:18;0.50;;;0.40;;
21539;SDS011;10931;52.164;5.518;2022-08-03T06:25:33;0.47;;;0.45;;
21539;SDS011;10931;52.164;5.518;2022-08-03T06:27:58;1.23;;;0.70;;
21539;SDS011;10931;52.164;5.518;2022-08-03T06:30:27;0.98;;;0.38;;
21539;SDS011;10931;52.164;5.518;2022-08-03T06:32:57;1.65;;;0.57;;
21539;SDS011;10931;52.164;5.518;2022-08-03T06:35:51;3.20;;;0.63;;
21539;SDS011;10931;52.164;5.518;2022-08-03T06:38:24;1.98;;;0.77;;
21539;SDS011;10931;52.164;5.518;2022-08-03T06:43:51;1.10;;;0.50;;
21539;SDS011;10931;52.164;5.518;2022-08-03T06:46:21;1.70;;;0.70;;
21539;SDS011;10931;52.164;5.518;2022-08-03T06:48:47;0.55;;;0.40;;
21539;SDS011;10931;52.164;5.518;2022-08-03T06:51:21;1.38;;;0.65;;
21539;SDS011;10931;52.164;5.518;2022-08-03T06:53:47;1.75;;;0.60;;
21539;SDS011;10931;52.164;5.518;2022-08-03T06:59:24;0.60;;;0.60;;
21539;SDS011;10931;52.164;5.518;2022-08-03T07:01:52;2.22;;;0.57;;
21539;SDS011;10931;52.164;5.518;2022-08-03T07:07:20;3.03;;;0.98;;
21539;SDS011;10931;52.164;5.518;2022-08-03T07:09:48;1.65;;;0.65;;
21539;SDS011;10931;52.164;5.518;2022-08-03T07:12:42;3.42;;;0.82;;
21539;SDS011;10931;52.164;5.518;2022-08-03T07:17:38;1.10;;;0.60;;
21539;SDS011;10931;52.164;5.518;2022-08-03T07:22:33;1.55;;;0.63;;
21539;SDS011;10931;52.164;5.518;2022-08-03T07:25:04;1.55;;;1.00;;
21539;SDS011;10931;52.164;5.518;2022-08-03T07:27:33;1.95;;;0.80;;
21539;SDS011;10931;52.164;5.518;2022-08-03T07:30:05;1.23;;;0.68;;
21539;SDS011;10931;52.164;5.518;2022-08-03T07:32:32;2.88;;;0.50;;
21539;SDS011;10931;52.164;5.518;2022-08-03T07:35:01;0.73;;;0.50;;
21539;SDS011;10931;52.164;5.518;2022-08-03T07:37:29;0.68;;;0.50;;
21539;SDS011;10931;52.164;5.518;2022-08-03T07:45:56;3.85;;;0.65;;
21539;SDS011;10931;52.164;5.518;2022-08-03T07:48:24;1.38;;;0.65;;
21539;SDS011;10931;52.164;5.518;2022-08-03T07:51:26;1.98;;;0.55;;
21539;SDS011;10931;52.164;5.518;2022-08-03T07:54:11;1.27;;;0.50;;
21539;SDS011;10931;52.164;5.518;2022-08-03T07:56:37;2.03;;;0.68;;
21539;SDS011;10931;52.164;5.518;2022-08-03T07:59:05;1.60;;;0.40;;
21539;SDS011;10931;52.164;5.518;2022-08-03T08:01:31;0.60;;;0.50;;
21539;SDS011;10931;52.164;5.518;2022-08-03T08:03:59;1.63;;;0.68;;
21539;SDS011;10931;52.164;5.518;2022-08-03T08:06:25;1.50;;;0.90;;
21539;SDS011;10931;52.164;5.518;2022-08-03T08:08:51;1.60;;;0.60;;
21539;SDS011;10931;52.164;5.518;2022-08-03T08:11:17;1.92;;;0.55;;
21539;SDS011;10931;52.164;5.518;2022-08-03T08:13:49;1.77;;;0.63;;
21539;SDS011;10931;52.164;5.518;2022-08-03T08:16:15;1.20;;;0.63;;
21539;SDS011;10931;52.164;5.518;2022-08-03T08:19:01;3.60;;;0.55;;
21539;SDS011;10931;52.164;5.518;2022-08-03T08:21:27;4.13;;;0.80;;
21539;SDS011;10931;52.164;5.518;2022-08-03T08:23:54;0.98;;;0.45;;
21539;SDS011;10931;52.164;5.518;2022-08-03T08:26:22;2.70;;;0.70;;
21539;SDS011;10931;52.164;5.518;2022-08-03T08:28:48;1.45;;;0.57;;
21539;SDS011;10931;52.164;5.518;2022-08-03T08:34:07;3.38;;;0.75;;
21539;SDS011;10931;52.164;5.518;2022-08-03T08:36:49;1.80;;;0.55;;
21539;SDS011;10931;52.164;5.518;2022-08-03T08:39:23;2.60;;;0.65;;
21539;SDS011;10931;52.164;5.518;2022-08-03T08:41:50;2.55;;;0.70;;
21539;SDS011;10931;52.164;5.518;2022-08-03T08:44:19;2.20;;;0.70;;
21539;SDS011;10931;52.164;5.518;2022-08-03T08:46:56;2.40;;;0.80;;
21539;SDS011;10931;52.164;5.518;2022-08-03T08:49:28;0.98;;;0.70;;
21539;SDS011;10931;52.164;5.518;2022-08-03T08:51:56;2.88;;;0.70;;
21539;SDS011;10931;52.164;5.518;2022-08-03T08:57:17;1.85;;;0.70;;
21539;SDS011;10931;52.164;5.518;2022-08-03T09:03:27;1.00;;;0.60;;
21539;SDS011;10931;52.164;5.518;2022-08-03T09:08:53;2.17;;;0.50;;
21539;SDS011;10931;52.164;5.518;2022-08-03T09:26:35;1.73;;;0.57;;
21539;SDS011;10931;52.164;5.518;2022-08-03T09:29:14;1.73;;;0.60;;
21539;SDS011;10931;52.164;5.518;2022-08-03T09:31:50;1.55;;;0.60;;
21539;SDS011;10931;52.164;5.518;2022-08-03T09:34:39;1.35;;;0.75;;
21539;SDS011;10931;52.164;5.518;2022-08-03T09:37:23;1.83;;;0.75;;
21539;SDS011;10931;52.164;5.518;2022-08-03T09:40:06;1.67;;;0.85;;
21539;SDS011;10931;52.164;5.518;2022-08-03T09:43:25;2.53;;;0.70;;
21539;SDS011;10931;52.164;5.518;2022-08-03T09:59:53;2.83;;;0.73;;
21539;SDS011;10931;52.164;5.518;2022-08-03T10:05:35;4.40;;;0.70;;
21539;SDS011;10931;52.164;5.518;2022-08-03T10:08:22;3.35;;;1.08;;
21539;SDS011;10931;52.164;5.518;2022-08-03T10:10:48;2.58;;;0.60;;
21539;SDS011;10931;52.164;5.518;2022-08-03T10:13:22;4.82;;;0.73;;
21539;SDS011;10931;52.164;5.518;2022-08-03T10:15:59;2.55;;;0.77;;
21539;SDS011;10931;52.164;5.518;2022-08-03T10:18:28;3.50;;;1.13;;
21539;SDS011;10931;52.164;5.518;2022-08-03T10:23:28;4.85;;;0.70;;
21539;SDS011;10931;52.164;5.518;2022-08-03T10:26:00;0.88;;;0.50;;
21539;SDS011;10931;52.164;5.518;2022-08-03T10:31:34;1.15;;;0.52;;
21539;SDS011;10931;52.164;5.518;2022-08-03T10:34:22;1.83;;;0.50;;
21539;SDS011;10931;52.164;5.518;2022-08-03T10:36:51;1.30;;;0.70;;
21539;SDS011;10931;52.164;5.518;2022-08-03T10:39:21;0.80;;;0.47;;
21539;SDS011;10931;52.164;5.518;2022-08-03T10:41:48;2.10;;;0.63;;
21539;SDS011;10931;52.164;5.518;2022-08-03T10:44:19;3.13;;;1.05;;
21539;SDS011;10931;52.164;5.518;2022-08-03T10:51:58;1.77;;;0.68;;
21539;SDS011;10931;52.164;5.518;2022-08-03T10:54:39;2.50;;;0.80;;
21539;SDS011;10931;52.164;5.518;2022-08-03T10:57:43;2.33;;;0.70;;
21539;SDS011;10931;52.164;5.518;2022-08-03T11:00:26;2.60;;;0.57;;
21539;SDS011;10931;52.164;5.518;2022-08-03T11:05:46;3.55;;;0.75;;
21539;SDS011;10931;52.164;5.518;2022-08-03T11:08:17;1.48;;;0.57;;
21539;SDS011;10931;52.164;5.518;2022-08-03T11:10:42;3.55;;;1.05;;
21539;SDS011;10931;52.164;5.518;2022-08-03T11:13:15;3.50;;;0.60;;
21539;SDS011;10931;52.164;5.518;2022-08-03T11:15:44;2.25;;;0.82;;
21539;SDS011;10931;52.164;5.518;2022-08-03T11:18:11;2.63;;;0.68;;
21539;SDS011;10931;52.164;5.518;2022-08-03T11:20:49;3.97;;;1.02;;
21539;SDS011;10931;52.164;5.518;2022-08-03T11:26:14;9.35;;;1.30;;
21539;SDS011;10931;52.164;5.518;2022-08-03T11:28:45;6.13;;;0.93;;
21539;SDS011;10931;52.164;5.518;2022-08-03T11:34:33;5.45;;;0.85;;
21539;SDS011;10931;52.164;5.518;2022-08-03T11:39:56;10.25;;;0.95;;
21539;SDS011;10931;52.164;5.518;2022-08-03T11:49:03;3.17;;;0.80;;
21539;SDS011;10931;52.164;5.518;2022-08-03T11:55:19;4.30;;;0.93;;
21539;SDS011;10931;52.164;5.518;2022-08-03T12:00:28;2.90;;;0.70;;
21539;SDS011;10931;52.164;5.518;2022-08-03T12:03:18;3.03;;;1.02;;
21539;SDS011;10931;52.164;5.518;2022-08-03T12:38:19;1.95;;;0.73;;
21539;SDS011;10931;52.164;5.518;2022-08-03T12:41:02;2.22;;;0.63;;
21539;SDS011;10931;52.164;5.518;2022-08-03T12:43:51;3.45;;;0.80;;
21539;SDS011;10931;52.164;5.518;2022-08-03T12:52:52;2.47;;;0.63;;
21539;SDS011;10931;52.164;5.518;2022-08-03T12:55:17;2.45;;;0.75;;
21539;SDS011;10931;52.164;5.518;2022-08-03T12:58:10;2.67;;;0.82;;
21539;SDS011;10931;52.164;5.518;2022-08-03T13:01:07;1.88;;;0.77;;
21539;SDS011;10931;52.164;5.518;2022-08-03T13:03:39;3.90;;;1.10;;
21539;SDS011;10931;52.164;5.518;2022-08-03T13:11:24;2.40;;;0.60;;
21539;SDS011;10931;52.164;5.518;2022-08-03T13:14:22;1.25;;;0.75;;
21539;SDS011;10931;52.164;5.518;2022-08-03T13:16:50;4.50;;;0.80;;
21539;SDS011;10931;52.164;5.518;2022-08-03T13:24:51;3.65;;;0.80;;
21539;SDS011;10931;52.164;5.518;2022-08-03T13:27:35;1.15;;;0.50;;
21539;SDS011;10931;52.164;5.518;2022-08-03T13:30:14;2.45;;;0.68;;
21539;SDS011;10931;52.164;5.518;2022-08-03T13:37:45;2.55;;;0.60;;
21539;SDS011;10931;52.164;5.518;2022-08-03T13:40:14;1.13;;;0.52;;
21539;SDS011;10931;52.164;5.518;2022-08-03T13:48:45;2.45;;;0.70;;
21539;SDS011;10931;52.164;5.518;2022-08-03T13:51:14;1.65;;;0.90;;
21539;SDS011;10931;52.164;5.518;2022-08-03T13:53:50;1.52;;;0.73;;
21539;SDS011;10931;52.164;5.518;2022-08-03T13:59:29;2.08;;;0.70;;
21539;SDS011;10931;52.164;5.518;2022-08-03T14:02:21;4.05;;;0.73;;
21539;SDS011;10931;52.164;5.518;2022-08-03T14:05:13;2.28;;;1.10;;
21539;SDS011;10931;52.164;5.518;2022-08-03T14:18:26;2.30;;;0.70;;
21539;SDS011;10931;52.164;5.518;2022-08-03T14:26:34;0.90;;;0.68;;
21539;SDS011;10931;52.164;5.518;2022-08-03T14:29:27;1.90;;;0.60;;
21539;SDS011;10931;52.164;5.518;2022-08-03T14:31:55;2.35;;;0.80;;
21539;SDS011;10931;52.164;5.518;2022-08-03T14:34:21;1.17;;;0.70;;
21539;SDS011;10931;52.164;5.518;2022-08-03T14:36:53;3.75;;;1.20;;
21539;SDS011;10931;52.164;5.518;2022-08-03T14:45:00;3.45;;;1.42;;
21539;SDS011;10931;52.164;5.518;2022-08-03T14:56:19;3.10;;;0.93;;
21539;SDS011;10931;52.164;5.518;2022-08-03T15:02:02;4.15;;;1.13;;
21539;SDS011;10931;52.164;5.518;2022-08-03T15:04:33;4.72;;;1.10;;
21539;SDS011;10931;52.164;5.518;2022-08-03T15:06:59;8.10;;;1.30;;
21539;SDS011;10931;52.164;5.518;2022-08-03T15:09:28;17.80;;;1.98;;
21539;SDS011;10931;52.164;5.518;2022-08-03T15:11:53;3.05;;;1.60;;
21539;SDS011;10931;52.164;5.518;2022-08-03T15:14:19;6.10;;;1.52;;
21539;SDS011;10931;52.164;5.518;2022-08-03T15:16:45;4.63;;;1.70;;
21539;SDS011;10931;52.164;5.518;2022-08-03T15:19:13;11.02;;;3.60;;
21539;SDS011;10931;52.164;5.518;2022-08-03T15:21:39;12.50;;;2.72;;
21539;SDS011;10931;52.164;5.518;2022-08-03T15:24:10;5.55;;;1.85;;
21539;SDS011;10931;52.164;5.518;2022-08-03T15:26:47;4.53;;;1.88;;
21539;SDS011;10931;52.164;5.518;2022-08-03T15:29:18;9.25;;;1.65;;
21539;SDS011;10931;52.164;5.518;2022-08-03T15:31:44;7.00;;;2.05;;
21539;SDS011;10931;52.164;5.518;2022-08-03T15:37:10;5.65;;;1.40;;
21539;SDS011;10931;52.164;5.518;2022-08-03T15:39:36;7.50;;;1.67;;
21539;SDS011;10931;52.164;5.518;2022-08-03T15:42:04;4.25;;;1.58;;
21539;SDS011;10931;52.164;5.518;2022-08-03T15:44:51;3.05;;;1.30;;
21539;SDS011;10931;52.164;5.518;2022-08-03T15:47:36;7.32;;;1.23;;
21539;SDS011;10931;52.164;5.518;2022-08-03T15:50:07;6.78;;;1.35;;
21539;SDS011;10931;52.164;5.518;2022-08-03T15:55:48;7.82;;;1.50;;
21539;SDS011;10931;52.164;5.518;2022-08-03T15:58:57;2.75;;;0.90;;
21539;SDS011;10931;52.164;5.518;2022-08-03T16:01:23;3.78;;;1.27;;
21539;SDS011;10931;52.164;5.518;2022-08-03T16:17:07;4.53;;;1.25;;
21539;SDS011;10931;52.164;5.518;2022-08-03T16:19:34;7.20;;;1.10;;
21539;SDS011;10931;52.164;5.518;2022-08-03T16:22:07;2.63;;;1.00;;
21539;SDS011;10931;52.164;5.518;2022-08-03T16:24:32;2.08;;;0.90;;
21539;SDS011;10931;52.164;5.518;2022-08-03T16:26:58;2.47;;;0.98;;
21539;SDS011;10931;52.164;5.518;2022-08-03T16:35:02;3.15;;;1.00;;
21539;SDS011;10931;52.164;5.518;2022-08-03T16:43:10;3.75;;;1.15;;
21539;SDS011;10931;52.164;5.518;2022-08-03T16:45:57;2.80;;;0.82;;
21539;SDS011;10931;52.164;5.518;2022-08-03T16:48:23;1.85;;;0.88;;
21539;SDS011;10931;52.164;5.518;2022-08-03T16:50:51;3.47;;;1.00;;
21539;SDS011;10931;52.164;5.518;2022-08-03T16:59:04;5.65;;;1.30;;
21539;SDS011;10931;52.164;5.518;2022-08-03T17:04:20;6.47;;;0.80;;
21539;SDS011;10931;52.164;5.518;2022-08-03T17:06:46;5.95;;;1.10;;
21539;SDS011;10931;52.164;5.518;2022-08-03T17:09:15;2.20;;;1.13;;
21539;SDS011;10931;52.164;5.518;2022-08-03T17:11:45;3.30;;;1.13;;
21539;SDS011;10931;52.164;5.518;2022-08-03T17:14:19;4.53;;;0.93;;
21539;SDS011;10931;52.164;5.518;2022-08-03T17:17:12;4.20;;;1.17;;
21539;SDS011;10931;52.164;5.518;2022-08-03T17:29:22;5.47;;;1.70;;
21539;SDS011;10931;52.164;5.518;2022-08-03T17:35:13;3.28;;;1.17;;
21539;SDS011;10931;52.164;5.518;2022-08-03T17:38:05;4.68;;;1.63;;
21539;SDS011;10931;52.164;5.518;2022-08-03T17:41:01;2.55;;;1.00;;
21539;SDS011;10931;52.164;5.518;2022-08-03T17:55:33;3.75;;;1.00;;
21539;SDS011;10931;52.164;5.518;2022-08-03T17:58:17;3.80;;;1.13;;
21539;SDS011;10931;52.164;5.518;2022-08-03T18:03:50;4.53;;;1.00;;
21539;SDS011;10931;52.164;5.518;2022-08-03T18:06:30;3.17;;;1.20;;
21539;SDS011;10931;52.164;5.518;2022-08-03T18:09:02;5.30;;;1.17;;
21539;SDS011;10931;52.164;5.518;2022-08-03T18:11:37;6.60;;;1.52;;
21539;SDS011;10931;52.164;5.518;2022-08-03T18:14:16;4.63;;;0.88;;
21539;SDS011;10931;52.164;5.518;2022-08-03T18:17:25;6.03;;;1.17;;
21539;SDS011;10931;52.164;5.518;2022-08-03T18:20:07;5.07;;;1.15;;
21539;SDS011;10931;52.164;5.518;2022-08-03T18:22:40;5.18;;;1.13;;
21539;SDS011;10931;52.164;5.518;2022-08-03T18:25:09;4.43;;;1.08;;
21539;SDS011;10931;52.164;5.518;2022-08-03T18:27:47;3.13;;;0.90;;
21539;SDS011;10931;52.164;5.518;2022-08-03T18:30:16;4.35;;;1.30;;
21539;SDS011;10931;52.164;5.518;2022-08-03T18:32:45;4.38;;;0.90;;
21539;SDS011;10931;52.164;5.518;2022-08-03T18:35:15;6.45;;;1.10;;
21539;SDS011;10931;52.164;5.518;2022-08-03T18:37:46;4.07;;;1.00;;
21539;SDS011;10931;52.164;5.518;2022-08-03T18:40:14;2.97;;;1.17;;
21539;SDS011;10931;52.164;5.518;2022-08-03T18:42:43;5.55;;;1.00;;
21539;SDS011;10931;52.164;5.518;2022-08-03T18:45:11;1.73;;;0.80;;
21539;SDS011;10931;52.164;5.518;2022-08-03T18:53:32;6.68;;;1.15;;
21539;SDS011;10931;52.164;5.518;2022-08-03T19:01:37;4.45;;;1.58;;
21539;SDS011;10931;52.164;5.518;2022-08-03T19:04:08;3.20;;;1.00;;
21539;SDS011;10931;52.164;5.518;2022-08-03T19:06:38;5.80;;;1.00;;
21539;SDS011;10931;52.164;5.518;2022-08-03T19:09:26;9.15;;;1.30;;
21539;SDS011;10931;52.164;5.518;2022-08-03T19:15:32;2.63;;;1.00;;
21539;SDS011;10931;52.164;5.518;2022-08-03T19:18:09;4.80;;;1.02;;
21539;SDS011;10931;52.164;5.518;2022-08-03T19:20:40;2.15;;;1.00;;
21539;SDS011;10931;52.164;5.518;2022-08-03T19:23:07;2.20;;;1.25;;
21539;SDS011;10931;52.164;5.518;2022-08-03T19:25:38;2.92;;;1.10;;
21539;SDS011;10931;52.164;5.518;2022-08-03T19:28:05;2.10;;;1.08;;
21539;SDS011;10931;52.164;5.518;2022-08-03T19:30:35;3.30;;;1.00;;
21539;SDS011;10931;52.164;5.518;2022-08-03T19:33:04;2.78;;;1.20;;
21539;SDS011;10931;52.164;5.518;2022-08-03T19:35:31;11.68;;;1.95;;
21539;SDS011;10931;52.164;5.518;2022-08-03T19:40:31;5.70;;;1.40;;
21539;SDS011;10931;52.164;5.518;2022-08-03T19:42:59;4.35;;;1.40;;
21539;SDS011;10931;52.164;5.518;2022-08-03T19:45:32;5.10;;;0.90;;
21539;SDS011;10931;52.164;5.518;2022-08-03T19:48:05;3.85;;;1.10;;
21539;SDS011;10931;52.164;5.518;2022-08-03T19:50:36;1.98;;;1.10;;
21539;SDS011;10931;52.164;5.518;2022-08-03T19:53:13;4.07;;;1.33;;
21539;SDS011;10931;52.164;5.518;2022-08-03T19:55:42;4.70;;;0.98;;
21539;SDS011;10931;52.164;5.518;2022-08-03T19:58:16;4.47;;;1.23;;
21539;SDS011;10931;52.164;5.518;2022-08-03T20:00:42;3.83;;;1.45;;
21539;SDS011;10931;52.164;5.518;2022-08-03T20:03:08;6.97;;;1.20;;
21539;SDS011;10931;52.164;5.518;2022-08-03T20:05:34;6.55;;;1.30;;
21539;SDS011;10931;52.164;5.518;2022-08-03T20:08:01;5.20;;;1.15;;
21539;SDS011;10931;52.164;5.518;2022-08-03T20:10:29;6.05;;;1.40;;
21539;SDS011;10931;52.164;5.518;2022-08-03T20:12:58;3.55;;;1.10;;
21539;SDS011;10931;52.164;5.518;2022-08-03T20:15:25;5.68;;;1.20;;
21539;SDS011;10931;52.164;5.518;2022-08-03T20:17:51;5.65;;;1.45;;
21539;SDS011;10931;52.164;5.518;2022-08-03T20:20:31;4.65;;;1.92;;
21539;SDS011;10931;52.164;5.518;2022-08-03T20:23:03;3.58;;;1.02;;
21539;SDS011;10931;52.164;5.518;2022-08-03T20:25:39;9.68;;;1.67;;
21539;SDS011;10931;52.164;5.518;2022-08-03T20:30:54;3.03;;;1.27;;
21539;SDS011;10931;52.164;5.518;2022-08-03T20:33:20;3.90;;;1.40;;
21539;SDS011;10931;52.164;5.518;2022-08-03T20:35:51;3.85;;;1.83;;
21539;SDS011;10931;52.164;5.518;2022-08-03T20:38:17;5.03;;;2.10;;
21539;SDS011;10931;52.164;5.518;2022-08-03T20:40:53;5.00;;;1.38;;
21539;SDS011;10931;52.164;5.518;2022-08-03T20:45:50;7.28;;;1.50;;
21539;SDS011;10931;52.164;5.518;2022-08-03T20:48:16;3.53;;;1.48;;
21539;SDS011;10931;52.164;5.518;2022-08-03T20:50:50;4.50;;;1.60;;
21539;SDS011;10931;52.164;5.518;2022-08-03T20:53:20;4.18;;;1.17;;
21539;SDS011;10931;52.164;5.518;2022-08-03T20:55:49;4.78;;;1.25;;
21539;SDS011;10931;52.164;5.518;2022-08-03T20:58:26;6.40;;;1.65;;
21539;SDS011;10931;52.164;5.518;2022-08-03T21:00:55;3.60;;;1.45;;
21539;SDS011;10931;52.164;5.518;2022-08-03T21:03:24;3.50;;;1.33;;
21539;SDS011;10931;52.164;5.518;2022-08-03T21:05:52;2.05;;;1.20;;
21539;SDS011;10931;52.164;5.518;2022-08-03T21:08:21;3.42;;;1.17;;
21539;SDS011;10931;52.164;5.518;2022-08-03T21:11:01;4.55;;;1.30;;
21539;SDS011;10931;52.164;5.518;2022-08-03T21:16:18;3.17;;;1.13;;
21539;SDS011;10931;52.164;5.518;2022-08-03T21:18:52;3.65;;;1.20;;
21539;SDS011;10931;52.164;5.518;2022-08-03T21:21:22;2.35;;;0.95;;
21539;SDS011;10931;52.164;5.518;2022-08-03T21:23:52;4.20;;;1.10;;
21539;SDS011;10931;52.164;5.518;2022-08-03T21:26:20;2.13;;;1.30;;
21539;SDS011;10931;52.164;5.518;2022-08-03T21:28:55;4.35;;;1.33;;
21539;SDS011;10931;52.164;5.518;2022-08-03T21:31:26;1.98;;;1.00;;
21539;SDS011;10931;52.164;5.518;2022-08-03T21:33:53;3.92;;;1.15;;
21539;SDS011;10931;52.164;5.518;2022-08-03T21:36:20;3.28;;;0.90;;
21539;SDS011;10931;52.164;5.518;2022-08-03T21:38:48;3.00;;;1.02;;
21539;SDS011;10931;52.164;5.518;2022-08-03T21:41:14;2.58;;;0.95;;
21539;SDS011;10931;52.164;5.518;2022-08-03T21:43:42;4.00;;;1.40;;
21539;SDS011;10931;52.164;5.518;2022-08-03T21:46:07;3.58;;;1.00;;
21539;SDS011;10931;52.164;5.518;2022-08-03T21:48:37;3.70;;;1.10;;
21539;SDS011;10931;52.164;5.518;2022-08-03T21:51:05;1.20;;;0.85;;
21539;SDS011;10931;52.164;5.518;2022-08-03T21:56:11;2.42;;;1.10;;
21539;SDS011;10931;52.164;5.518;2022-08-03T21:58:49;1.63;;;0.85;;
21539;SDS011;10931;52.164;5.518;2022-08-03T22:01:21;2.08;;;0.77;;
21539;SDS011;10931;52.164;5.518;2022-08-03T22:03:50;2.15;;;0.98;;
21539;SDS011;10931;52.164;5.518;2022-08-03T22:06:17;3.47;;;1.33;;
21539;SDS011;10931;52.164;5.518;2022-08-03T22:08:46;2.75;;;0.98;;
21539;SDS011;10931;52.164;5.518;2022-08-03T22:11:14;2.25;;;0.90;;
21539;SDS011;10931;52.164;5.518;2022-08-03T22:13:43;1.95;;;1.15;;
21539;SDS011;10931;52.164;5.518;2022-08-03T22:16:16;2.38;;;0.88;;
21539;SDS011;10931;52.164;5.518;2022-08-03T22:19:01;1.35;;;0.95;;
21539;SDS011;10931;52.164;5.518;2022-08-03T22:21:28;2.60;;;0.90;;
21539;SDS011;10931;52.164;5.518;2022-08-03T22:23:59;2.08;;;0.90;;
21539;SDS011;10931;52.164;5.518;2022-08-03T22:29:28;3.55;;;1.08;;
21539;SDS011;10931;52.164;5.518;2022-08-03T22:31:55;1.77;;;0.80;;
21539;SDS011;10931;52.164;5.518;2022-08-03T22:34:24;2.78;;;0.68;;
21539;SDS011;10931;52.164;5.518;2022-08-03T22:36:54;1.52;;;1.00;;
21539;SDS011;10931;52.164;5.518;2022-08-03T22:39:26;3.15;;;0.85;;
21539;SDS011;10931;52.164;5.518;2022-08-03T22:41:55;2.42;;;0.90;;
21539;SDS011;10931;52.164;5.518;2022-08-03T22:46:54;1.52;;;0.80;;
21539;SDS011;10931;52.164;5.518;2022-08-03T22:49:20;1.50;;;0.85;;
21539;SDS011;10931;52.164;5.518;2022-08-03T22:51:46;2.65;;;1.40;;
21539;SDS011;10931;52.164;5.518;2022-08-03T22:54:15;1.48;;;0.68;;
21539;SDS011;10931;52.164;5.518;2022-08-03T22:59:14;2.88;;;1.10;;